createdAt,value
2022-10-16T00:01:42.619Z,13.43
2022-10-16T00:04:10.242Z,13.52
2022-10-16T00:06:37.388Z,13.54
2022-10-16T00:09:04.973Z,13.56
2022-10-16T00:11:35.246Z,13.51
2022-10-16T00:14:04.815Z,13.59
2022-10-16T00:16:32.221Z,13.61
2022-10-16T00:18:59.687Z,13.55
2022-10-16T00:21:29.513Z,13.64
2022-10-16T00:24:01.000Z,13.66
2022-10-16T00:26:30.093Z,13.67
2022-10-16T00:28:57.273Z,13.68
2022-10-16T00:31:25.102Z,13.45
2022-10-16T00:33:53.266Z,13.42
2022-10-16T00:36:23.466Z,13.67
2022-10-16T00:38:55.969Z,13.71
2022-10-16T00:41:26.244Z,13.72
2022-10-16T00:43:55.431Z,13.71
2022-10-16T00:46:46.619Z,13.72
2022-10-16T00:49:19.987Z,13.71
2022-10-16T00:51:51.002Z,13.49
2022-10-16T00:54:24.963Z,13.60
2022-10-16T00:56:52.750Z,13.45
2022-10-16T00:59:34.594Z,13.68
2022-10-16T01:02:02.703Z,13.68
2022-10-16T01:04:38.095Z,13.71
2022-10-16T01:07:27.057Z,13.50
2022-10-16T01:10:00.845Z,13.71
2022-10-16T01:12:45.480Z,13.34
2022-10-16T01:15:33.592Z,13.70
2022-10-16T01:18:09.998Z,13.68
2022-10-16T01:20:44.325Z,13.70
2022-10-16T01:23:26.525Z,13.66
2022-10-16T01:26:32.379Z,13.65
2022-10-16T01:29:20.510Z,13.65
2022-10-16T01:31:55.024Z,13.68
2022-10-16T01:34:45.944Z,13.69
2022-10-16T01:37:30.764Z,13.61
2022-10-16T01:40:01.812Z,13.70
2022-10-16T01:42:35.939Z,13.67
2022-10-16T01:45:07.766Z,13.70
2022-10-16T01:47:37.892Z,13.70
2022-10-16T01:50:06.946Z,13.70
2022-10-16T01:52:38.392Z,13.66
2022-10-16T01:55:08.437Z,13.66
2022-10-16T01:57:40.535Z,13.64
2022-10-16T02:00:11.861Z,13.66
2022-10-16T02:02:44.626Z,13.05
2022-10-16T02:05:23.622Z,13.68
2022-10-16T02:07:51.253Z,13.67
2022-10-16T02:10:19.376Z,13.65
2022-10-16T02:12:57.504Z,13.20
2022-10-16T02:15:24.728Z,13.48
2022-10-16T02:17:51.870Z,13.44
2022-10-16T02:20:24.064Z,13.64
2022-10-16T02:22:53.142Z,13.61
2022-10-16T02:25:34.239Z,13.64
2022-10-16T02:28:03.967Z,13.61
2022-10-16T02:30:42.903Z,13.62
2022-10-16T02:33:14.775Z,13.63
2022-10-16T02:35:44.044Z,13.37
2022-10-16T02:38:13.708Z,13.48
2022-10-16T02:40:42.080Z,13.60
2022-10-16T02:43:10.309Z,13.61
2022-10-16T02:45:38.177Z,13.61
2022-10-16T02:48:05.742Z,13.61
2022-10-16T02:50:33.116Z,13.64
2022-10-16T02:53:00.231Z,13.63
2022-10-16T02:55:29.078Z,13.60
2022-10-16T02:57:56.224Z,13.63
2022-10-16T03:00:23.877Z,13.63
2022-10-16T03:02:51.515Z,13.64
2022-10-16T03:05:18.800Z,13.10
2022-10-16T03:07:45.948Z,13.05
2022-10-16T03:10:13.346Z,13.59
2022-10-16T03:12:40.617Z,13.62
2022-10-16T03:15:08.669Z,13.61
2022-10-16T03:17:36.037Z,13.39
2022-10-16T03:20:03.785Z,13.66
2022-10-16T03:22:30.954Z,13.63
2022-10-16T03:24:58.244Z,13.49
2022-10-16T03:27:25.599Z,13.64
2022-10-16T03:29:53.134Z,13.67
2022-10-16T03:32:21.277Z,13.67
2022-10-16T03:34:48.524Z,13.59
2022-10-16T03:37:15.692Z,13.64
2022-10-16T03:39:42.812Z,13.22
2022-10-16T03:42:09.970Z,13.67
2022-10-16T03:44:37.094Z,13.69
2022-10-16T03:47:04.193Z,13.67
2022-10-16T03:49:31.445Z,13.58
2022-10-16T03:51:58.673Z,13.45
2022-10-16T03:54:26.077Z,13.46
2022-10-16T03:56:53.256Z,13.50
2022-10-16T03:59:20.519Z,13.52
2022-10-16T04:01:47.808Z,13.53
2022-10-16T04:04:15.016Z,13.75
2022-10-16T04:06:42.334Z,13.53
2022-10-16T04:09:09.553Z,13.34
2022-10-16T04:11:36.935Z,13.74
2022-10-16T04:14:04.243Z,13.75
2022-10-16T04:16:31.488Z,13.75
2022-10-16T04:18:58.759Z,13.14
2022-10-16T04:21:26.087Z,13.72
2022-10-16T04:23:53.445Z,13.71
2022-10-16T04:26:20.759Z,13.74
2022-10-16T04:28:48.076Z,13.67
2022-10-16T04:31:15.607Z,13.68
2022-10-16T04:33:46.024Z,13.77
2022-10-16T04:36:13.465Z,13.77
2022-10-16T04:38:40.994Z,13.78
2022-10-16T04:41:08.902Z,13.77
2022-10-16T04:43:36.401Z,13.69
2022-10-16T04:46:05.797Z,13.54
2022-10-16T04:48:33.439Z,13.72
2022-10-16T04:51:00.798Z,13.84
2022-10-16T04:53:28.274Z,13.83
2022-10-16T04:55:55.723Z,13.84
2022-10-16T04:58:23.576Z,13.90
2022-10-16T05:00:50.796Z,13.81
2022-10-16T05:03:18.432Z,13.94
2022-10-16T05:05:46.737Z,13.96
2022-10-16T05:08:15.338Z,13.99
2022-10-16T05:10:44.583Z,13.92
2022-10-16T05:13:12.359Z,14.03
2022-10-16T05:15:39.533Z,14.04
2022-10-16T05:18:06.816Z,14.09
2022-10-16T05:20:34.037Z,14.11
2022-10-16T05:23:01.589Z,14.09
2022-10-16T05:25:28.838Z,14.12
2022-10-16T05:27:56.060Z,14.19
2022-10-16T05:30:23.464Z,14.22
2022-10-16T05:32:52.116Z,14.24
2022-10-16T05:35:20.919Z,14.25
2022-10-16T05:37:48.540Z,14.27
2022-10-16T05:40:16.232Z,14.26
2022-10-16T05:42:43.388Z,14.29
2022-10-16T05:45:13.055Z,13.66
2022-10-16T05:47:40.673Z,14.32
2022-10-16T05:50:08.533Z,14.33
2022-10-16T05:52:35.774Z,14.31
2022-10-16T05:55:03.528Z,13.95
2022-10-16T05:57:31.249Z,14.37
2022-10-16T05:59:58.497Z,14.34
2022-10-16T06:02:25.649Z,13.93
2022-10-16T06:04:55.936Z,14.36
2022-10-16T06:07:24.412Z,14.41
2022-10-16T06:09:53.384Z,14.40
2022-10-16T06:12:21.069Z,14.42
2022-10-16T06:14:48.480Z,14.34
2022-10-16T06:17:15.949Z,14.43
2022-10-16T06:19:43.295Z,14.49
2022-10-16T06:22:11.014Z,14.50
2022-10-16T06:24:38.145Z,14.35
2022-10-16T06:27:06.593Z,14.54
2022-10-16T06:29:33.672Z,14.48
2022-10-16T06:32:01.383Z,14.30
2022-10-16T06:34:28.622Z,14.67
2022-10-16T06:36:56.728Z,14.43
2022-10-16T06:39:23.941Z,14.41
2022-10-16T06:41:51.130Z,14.69
2022-10-16T06:44:18.394Z,14.82
2022-10-16T06:46:45.724Z,14.90
2022-10-16T06:49:12.974Z,14.94
2022-10-16T06:51:43.392Z,14.95
2022-10-16T06:54:11.158Z,14.98
2022-10-16T06:56:38.840Z,15.01
2022-10-16T06:59:06.345Z,14.81
2022-10-16T07:01:34.146Z,14.97
2022-10-16T07:04:03.520Z,15.03
2022-10-16T07:06:34.609Z,15.07
2022-10-16T07:09:04.709Z,14.56
2022-10-16T07:11:32.025Z,15.08
2022-10-16T07:14:00.238Z,14.95
2022-10-16T07:16:29.773Z,14.92
2022-10-16T07:19:01.479Z,15.11
2022-10-16T07:21:31.920Z,14.85
2022-10-16T07:24:01.026Z,15.16
2022-10-16T07:26:31.216Z,15.17
2022-10-16T07:28:59.035Z,15.20
2022-10-16T07:31:26.772Z,15.22
2022-10-16T07:33:55.024Z,15.32
2022-10-16T07:36:22.950Z,15.40
2022-10-16T07:38:52.768Z,15.32
2022-10-16T07:41:22.601Z,15.49
2022-10-16T07:43:52.407Z,15.58
2022-10-16T07:46:22.061Z,15.61
2022-10-16T07:48:50.224Z,15.74
2022-10-16T07:51:20.453Z,15.88
2022-10-16T07:53:48.393Z,16.00
2022-10-16T07:56:16.854Z,16.18
2022-10-16T07:58:44.661Z,16.29
2022-10-16T08:01:16.538Z,16.38
2022-10-16T08:03:45.406Z,16.48
2022-10-16T08:06:12.705Z,16.57
2022-10-16T08:08:40.150Z,16.48
2022-10-16T08:11:07.287Z,16.70
2022-10-16T08:13:34.573Z,16.73
2022-10-16T08:16:02.058Z,16.97
2022-10-16T08:18:29.331Z,17.01
2022-10-16T08:20:59.175Z,16.90
2022-10-16T08:23:27.493Z,17.03
2022-10-16T08:25:57.297Z,17.15
2022-10-16T08:28:24.937Z,17.27
2022-10-16T08:30:52.184Z,17.32
2022-10-16T08:33:19.762Z,17.70
2022-10-16T08:35:54.988Z,17.84
2022-10-16T08:38:22.602Z,17.81
2022-10-16T08:40:52.863Z,17.81
2022-10-16T08:43:22.167Z,17.78
2022-10-16T08:46:22.704Z,17.75
2022-10-16T08:48:52.039Z,17.75
2022-10-16T08:51:33.344Z,17.79
2022-10-16T08:54:23.023Z,17.71
2022-10-16T08:56:50.495Z,17.67
2022-10-16T08:59:19.767Z,17.57
2022-10-16T09:01:51.193Z,17.50
2022-10-16T09:04:56.788Z,17.14
2022-10-16T09:08:13.574Z,17.30
2022-10-16T09:10:46.748Z,17.33
2022-10-16T09:13:16.663Z,17.31
2022-10-16T09:16:06.998Z,17.26
2022-10-16T09:18:47.162Z,17.28
2022-10-16T09:21:31.881Z,17.32
2022-10-16T09:24:09.404Z,17.38
2022-10-16T09:26:36.583Z,17.45
2022-10-16T09:29:04.779Z,17.50
2022-10-16T09:31:32.273Z,17.52
2022-10-16T09:34:07.618Z,17.62
2022-10-16T09:36:43.305Z,17.61
2022-10-16T09:39:15.576Z,17.66
2022-10-16T09:41:46.247Z,17.58
2022-10-16T09:44:33.213Z,17.54
2022-10-16T09:47:15.848Z,17.38
2022-10-16T09:50:07.395Z,17.47
2022-10-16T09:52:34.838Z,17.42
2022-10-16T09:55:17.120Z,17.36
2022-10-16T09:57:54.901Z,17.34
2022-10-16T10:00:24.733Z,17.33
2022-10-16T10:02:52.957Z,17.36
2022-10-16T10:05:24.715Z,17.36
2022-10-16T10:08:01.179Z,17.15
2022-10-16T10:10:30.685Z,17.26
2022-10-16T10:12:58.468Z,17.45
2022-10-16T10:15:29.165Z,17.32
2022-10-16T10:17:58.259Z,17.60
2022-10-16T10:20:35.628Z,17.80
2022-10-16T10:23:22.844Z,17.97
2022-10-16T10:25:57.963Z,17.81
2022-10-16T10:28:49.778Z,18.08
2022-10-16T10:31:48.918Z,18.06
2022-10-16T10:34:37.608Z,18.05
2022-10-16T10:37:09.452Z,18.00
2022-10-16T10:39:44.817Z,18.04
2022-10-16T10:42:27.156Z,18.20
2022-10-16T10:45:05.262Z,18.21
2022-10-16T10:48:10.153Z,18.31
2022-10-16T10:50:42.578Z,18.11
2022-10-16T10:53:22.933Z,18.28
2022-10-16T10:55:55.959Z,18.23
2022-10-16T10:58:52.754Z,18.07
2022-10-16T11:01:44.884Z,18.22
2022-10-16T11:04:12.009Z,18.22
2022-10-16T11:06:53.674Z,18.39
2022-10-16T11:09:28.747Z,18.47
2022-10-16T11:12:33.553Z,18.39
2022-10-16T11:15:18.889Z,18.40
2022-10-16T11:18:00.565Z,18.46
2022-10-16T11:20:33.003Z,18.41
2022-10-16T11:23:29.705Z,18.36
2022-10-16T11:26:03.526Z,18.25
2022-10-16T11:28:34.078Z,18.24
2022-10-16T11:31:21.142Z,18.20
2022-10-16T11:34:07.719Z,18.15
2022-10-16T11:36:44.176Z,18.27
2022-10-16T11:39:22.047Z,18.37
2022-10-16T11:41:54.203Z,18.43
2022-10-16T11:44:46.336Z,18.52
2022-10-16T11:47:58.638Z,18.71
2022-10-16T11:50:50.632Z,18.82
2022-10-16T11:53:22.953Z,18.67
2022-10-16T11:55:50.275Z,18.74
2022-10-16T11:58:17.577Z,18.72
2022-10-16T12:00:52.974Z,18.69
2022-10-16T12:03:29.585Z,18.64
2022-10-16T12:06:12.393Z,18.52
2022-10-16T12:08:40.002Z,18.04
2022-10-16T12:11:30.225Z,18.39
2022-10-16T12:14:06.555Z,18.50
2022-10-16T12:16:33.812Z,18.49
2022-10-16T12:19:13.232Z,18.46
2022-10-16T12:21:41.677Z,18.45
2022-10-16T12:24:42.666Z,18.44
2022-10-16T12:27:43.234Z,18.34
2022-10-16T12:30:25.014Z,18.35
2022-10-16T12:33:00.328Z,18.31
2022-10-16T12:35:34.846Z,18.30
2022-10-16T12:38:17.092Z,18.25
2022-10-16T12:40:46.264Z,18.22
2022-10-16T12:43:26.133Z,18.17
2022-10-16T12:46:23.858Z,18.01
2022-10-16T12:49:08.339Z,18.15
2022-10-16T12:51:39.095Z,18.17
2022-10-16T12:54:27.634Z,18.20
2022-10-16T12:57:00.485Z,18.21
2022-10-16T12:59:55.063Z,18.25
2022-10-16T13:02:53.195Z,18.27
2022-10-16T13:05:38.389Z,18.29
2022-10-16T13:08:27.228Z,18.31
2022-10-16T13:11:09.865Z,17.93
2022-10-16T13:13:53.356Z,18.09
2022-10-16T13:16:41.976Z,18.41
2022-10-16T13:19:18.103Z,18.43
2022-10-16T13:22:14.633Z,18.44
2022-10-16T13:25:00.630Z,18.46
2022-10-16T13:27:57.203Z,18.36
2022-10-16T13:30:31.146Z,18.47
2022-10-16T13:33:26.323Z,18.45
2022-10-16T13:35:56.507Z,18.31
2022-10-16T13:38:29.463Z,18.33
2022-10-16T13:40:58.013Z,18.43
2022-10-16T13:43:34.057Z,18.29
2022-10-16T13:46:26.642Z,18.38
2022-10-16T13:49:13.001Z,18.43
2022-10-16T13:51:40.249Z,18.46
2022-10-16T13:54:13.053Z,18.34
2022-10-16T13:56:41.864Z,18.50
2022-10-16T13:59:24.284Z,18.44
2022-10-16T14:01:55.505Z,18.61
2022-10-16T14:04:23.779Z,18.64
2022-10-16T14:06:53.073Z,18.68
2022-10-16T14:09:24.522Z,18.77
2022-10-16T14:11:56.433Z,18.74
2022-10-16T14:14:24.383Z,18.78
2022-10-16T14:16:52.327Z,18.70
2022-10-16T14:19:31.193Z,18.68
2022-10-16T14:22:01.086Z,18.78
2022-10-16T14:24:37.523Z,18.65
2022-10-16T14:27:31.242Z,18.67
2022-10-16T14:30:25.210Z,18.58
2022-10-16T14:33:21.660Z,18.54
2022-10-16T14:36:02.904Z,18.56
2022-10-16T14:38:30.967Z,18.50
2022-10-16T14:41:00.637Z,18.46
2022-10-16T14:43:46.402Z,18.39
2022-10-16T14:46:18.852Z,18.41
2022-10-16T14:48:51.175Z,18.41
2022-10-16T14:51:20.227Z,18.38
2022-10-16T14:53:48.632Z,18.37
2022-10-16T14:56:31.311Z,18.32
2022-10-16T14:59:00.477Z,18.06
2022-10-16T15:01:27.952Z,18.23
2022-10-16T15:03:56.432Z,18.20
2022-10-16T15:06:23.809Z,18.14
2022-10-16T15:08:51.147Z,18.15
2022-10-16T15:11:20.424Z,18.13
2022-10-16T15:13:48.019Z,17.98
2022-10-16T15:16:17.845Z,17.99
2022-10-16T15:18:45.243Z,17.99
2022-10-16T15:21:30.634Z,17.95
2022-10-16T15:23:59.714Z,17.94
2022-10-16T15:26:28.877Z,17.91
2022-10-16T15:28:56.498Z,17.87
2022-10-16T15:31:24.859Z,17.80
2022-10-16T15:33:55.443Z,17.77
2022-10-16T15:36:27.525Z,17.54
2022-10-16T15:38:54.927Z,17.57
2022-10-16T15:41:22.923Z,17.61
2022-10-16T15:43:51.548Z,17.54
2022-10-16T15:46:21.456Z,17.44
2022-10-16T15:48:50.455Z,17.26
2022-10-16T15:51:18.960Z,17.39
2022-10-16T15:53:47.639Z,17.35
2022-10-16T15:56:15.644Z,17.31
2022-10-16T15:58:43.620Z,17.23
2022-10-16T16:01:12.484Z,17.15
2022-10-16T16:03:43.324Z,17.19
2022-10-16T16:06:14.435Z,17.12
2022-10-16T16:08:42.065Z,16.94
2022-10-16T16:11:12.514Z,17.03
2022-10-16T16:13:40.085Z,16.80
2022-10-16T16:16:15.880Z,16.94
2022-10-16T16:18:43.634Z,16.68
2022-10-16T16:21:13.401Z,16.86
2022-10-16T16:23:40.803Z,16.81
2022-10-16T16:26:16.648Z,16.75
2022-10-16T16:28:44.797Z,16.57
2022-10-16T16:31:12.234Z,16.65
2022-10-16T16:33:39.329Z,16.62
2022-10-16T16:36:11.534Z,16.54
2022-10-16T16:38:40.225Z,16.49
2022-10-16T16:41:22.089Z,16.47
2022-10-16T16:43:49.855Z,16.39
2022-10-16T16:46:17.135Z,16.36
2022-10-16T16:48:45.325Z,16.30
2022-10-16T16:51:17.476Z,16.25
2022-10-16T16:53:46.118Z,16.23
2022-10-16T16:56:14.135Z,16.19
2022-10-16T16:58:41.302Z,15.67
2022-10-16T17:01:26.239Z,16.18
2022-10-16T17:03:56.330Z,16.03
2022-10-16T17:06:30.823Z,15.85
2022-10-16T17:08:58.844Z,15.80
2022-10-16T17:11:28.073Z,15.97
2022-10-16T17:13:57.434Z,15.90
2022-10-16T17:16:28.309Z,15.83
2022-10-16T17:18:55.489Z,15.76
2022-10-16T17:21:23.060Z,15.77
2022-10-16T17:23:53.662Z,15.48
2022-10-16T17:26:20.857Z,15.52
2022-10-16T17:28:53.030Z,15.75
2022-10-16T17:31:38.613Z,15.75
2022-10-16T17:34:08.628Z,15.72
2022-10-16T17:36:37.575Z,15.70
2022-10-16T17:39:11.045Z,15.68
2022-10-16T17:41:38.527Z,15.58
2022-10-16T17:44:07.054Z,15.61
2022-10-16T17:46:38.265Z,15.42
2022-10-16T17:49:08.526Z,15.19
2022-10-16T17:51:36.761Z,15.59
2022-10-16T17:54:04.173Z,15.07
2022-10-16T17:56:31.926Z,15.59
2022-10-16T17:59:02.095Z,15.61
2022-10-16T18:01:35.085Z,15.60
2022-10-16T18:04:14.423Z,15.54
2022-10-16T18:06:44.392Z,15.49
2022-10-16T18:09:15.220Z,15.55
2022-10-16T18:11:42.385Z,15.43
2022-10-16T18:14:12.758Z,15.51
2022-10-16T18:16:39.806Z,15.46
2022-10-16T18:19:07.590Z,15.36
2022-10-16T18:21:34.694Z,15.44
2022-10-16T18:24:02.163Z,15.42
2022-10-16T18:26:29.485Z,15.40
2022-10-16T18:28:58.532Z,15.38
2022-10-16T18:31:29.074Z,15.25
2022-10-16T18:33:56.417Z,15.27
2022-10-16T18:36:26.662Z,15.30
2022-10-16T18:38:54.293Z,15.28
2022-10-16T18:41:21.995Z,15.21
2022-10-16T18:43:49.307Z,15.18
2022-10-16T18:46:22.125Z,15.16
2022-10-16T18:48:50.265Z,15.10
2022-10-16T18:51:39.325Z,15.03
2022-10-16T18:54:11.923Z,15.01
2022-10-16T18:56:39.894Z,14.97
2022-10-16T18:59:08.471Z,14.94
2022-10-16T19:01:39.000Z,14.94
2022-10-16T19:04:09.748Z,14.92
2022-10-16T19:06:39.549Z,14.90
2022-10-16T19:09:07.581Z,14.87
2022-10-16T19:11:40.514Z,14.89
2022-10-16T19:14:09.273Z,14.78
2022-10-16T19:16:38.317Z,14.89
2022-10-16T19:19:08.058Z,14.89
2022-10-16T19:21:37.748Z,14.34
2022-10-16T19:24:05.522Z,14.73
2022-10-16T19:26:36.806Z,14.80
2022-10-16T19:29:07.473Z,14.75
2022-10-16T19:31:35.037Z,14.68
2022-10-16T19:34:03.593Z,14.57
2022-10-16T19:36:38.267Z,14.66
2022-10-16T19:39:08.318Z,14.44
2022-10-16T19:41:38.255Z,14.60
2022-10-16T19:44:08.373Z,14.69
2022-10-16T19:46:36.384Z,14.56
2022-10-16T19:49:07.160Z,14.67
2022-10-16T19:51:35.414Z,14.65
2022-10-16T19:54:05.518Z,14.61
2022-10-16T19:56:34.048Z,14.55
2022-10-16T19:59:01.755Z,14.53
2022-10-16T20:01:31.402Z,14.57
2022-10-16T20:03:59.006Z,14.55
2022-10-16T20:06:26.363Z,14.52
2022-10-16T20:08:54.453Z,14.32
2022-10-16T20:11:24.824Z,14.31
2022-10-16T20:13:52.190Z,14.49
2022-10-16T20:16:20.127Z,14.40
2022-10-16T20:18:49.603Z,14.35
2022-10-16T20:21:19.623Z,14.40
2022-10-16T20:23:49.162Z,14.31
2022-10-16T20:26:16.981Z,14.34
2022-10-16T20:28:44.795Z,14.07
2022-10-16T20:31:18.358Z,14.27
2022-10-16T20:33:45.730Z,14.21
2022-10-16T20:36:14.616Z,14.21
2022-10-16T20:38:42.934Z,14.12
2022-10-16T20:41:11.006Z,14.16
2022-10-16T20:46:11.155Z,14.12
2022-10-16T20:48:41.335Z,14.08
2022-10-16T20:51:16.878Z,14.01
2022-10-16T20:53:46.718Z,14.08
2022-10-16T20:56:18.583Z,14.08
2022-10-16T20:58:46.105Z,14.01
2022-10-16T21:01:15.680Z,13.97
2022-10-16T21:03:43.756Z,13.92
2022-10-16T21:06:11.848Z,13.88
2022-10-16T21:08:41.389Z,13.86
2022-10-16T21:11:16.584Z,13.67
2022-10-16T21:13:44.453Z,13.82
2022-10-16T21:16:13.078Z,13.69
2022-10-16T21:18:44.359Z,13.78
2022-10-16T21:21:20.073Z,13.78
2022-10-16T21:23:48.384Z,13.58
2022-10-16T21:26:15.777Z,13.77
2022-10-16T21:28:43.019Z,13.77
2022-10-16T21:31:15.724Z,13.75
2022-10-16T21:33:43.185Z,13.47
2022-10-16T21:36:21.777Z,13.56
2022-10-16T21:38:49.441Z,13.67
2022-10-16T21:41:27.292Z,13.68
2022-10-16T21:43:56.475Z,13.68
2022-10-16T21:46:26.556Z,13.67
2022-10-16T21:48:55.277Z,13.59
2022-10-16T21:51:31.285Z,13.58
2022-10-16T21:53:58.412Z,13.46
2022-10-16T21:56:26.910Z,13.57
2022-10-16T21:58:54.232Z,13.38
2022-10-16T22:01:24.071Z,13.58
2022-10-16T22:03:52.298Z,13.60
2022-10-16T22:08:51.745Z,13.58
2022-10-16T22:11:23.294Z,13.57
2022-10-16T22:13:54.045Z,13.53
2022-10-16T22:16:25.541Z,13.28
2022-10-16T22:18:53.899Z,13.53
2022-10-16T22:21:21.204Z,13.51
2022-10-16T22:23:48.492Z,13.38
2022-10-16T22:26:16.170Z,13.30
2022-10-16T22:28:43.897Z,13.53
2022-10-16T22:31:13.675Z,13.55
2022-10-16T22:33:43.505Z,13.58
2022-10-16T22:36:15.163Z,13.60
2022-10-16T22:38:42.475Z,13.61
2022-10-16T22:41:12.534Z,13.54
2022-10-16T22:43:43.312Z,13.55
2022-10-16T22:46:14.157Z,13.53
2022-10-16T22:48:42.127Z,13.49
2022-10-16T22:51:15.735Z,13.50
2022-10-16T22:53:48.446Z,13.43
2022-10-16T22:56:17.992Z,13.45
2022-10-16T22:58:45.372Z,13.43
2022-10-16T23:01:14.765Z,13.41
2022-10-16T23:03:42.147Z,13.39
2022-10-16T23:06:09.225Z,13.28
2022-10-16T23:08:36.321Z,13.06
2022-10-16T23:11:08.463Z,13.13
2022-10-16T23:13:45.800Z,13.16
2022-10-16T23:16:15.594Z,13.12
2022-10-16T23:18:44.594Z,13.09
2022-10-16T23:21:18.484Z,13.08
2022-10-16T23:23:45.663Z,13.01
2022-10-16T23:26:17.934Z,12.84
2022-10-16T23:28:45.601Z,12.95
2022-10-16T23:31:13.773Z,12.92
2022-10-16T23:33:42.131Z,12.77
2022-10-16T23:36:14.607Z,12.93
2022-10-16T23:38:43.554Z,12.90
2022-10-16T23:41:11.328Z,12.86
2022-10-16T23:43:38.545Z,12.83
2022-10-16T23:46:06.964Z,12.84
2022-10-16T23:48:34.434Z,12.22
2022-10-16T23:51:01.873Z,12.77
2022-10-16T23:53:29.083Z,12.55
2022-10-16T23:55:56.386Z,12.59
2022-10-16T23:58:23.980Z,12.75
